Time,TemperatureF,DewpointF,PressureIn,WindDirection,WindDirectionDegrees,WindSpeedMPH,WindSpeedGustMPH,Humidity,HourlyPrecipIn,Conditions,Clouds,dailyrainin,SoftwareType,DateUTC
2013-05-25 00:00:00,50.0,26.0,29.96,NE,42,6.0,16.0,39,0.00,,,0.00,,2013-05-25 08:00:00,
2013-05-25 00:32:00,50.0,26.0,29.96,NE,42,6.0,16.0,39,0.00,,,0.00,,2013-05-25 08:32:00,
2013-05-25 00:42:00,50.0,26.0,29.96,NE,42,6.0,16.0,39,0.00,,,0.00,,2013-05-25 08:42:00,
2013-05-25 00:52:00,50.0,26.0,29.96,NE,42,6.0,16.0,39,0.00,,,0.00,,2013-05-25 08:52:00,
2013-05-25 01:00:00,49.0,26.0,29.96,NNE,32,7.0,14.0,41,0.00,,,0.00,,2013-05-25 09:00:00,
2013-05-25 01:33:00,49.0,26.0,29.96,NNE,32,7.0,14.0,41,0.00,,,0.00,,2013-05-25 09:33:00,
2013-05-25 01:43:00,49.0,26.0,29.96,NNE,32,7.0,14.0,41,0.00,,,0.00,,2013-05-25 09:43:00,
2013-05-25 01:53:00,49.0,26.0,29.96,NNE,32,7.0,14.0,41,0.00,,,0.00,,2013-05-25 09:53:00,
2013-05-25 02:00:00,48.0,27.0,29.96,NNE,21,8.0,15.0,44,0.00,,,0.00,,2013-05-25 10:00:00,
2013-05-25 02:33:00,48.0,27.0,29.96,NNE,21,8.0,15.0,44,0.00,,,0.00,,2013-05-25 10:33:00,
2013-05-25 02:42:00,48.0,27.0,29.96,NNE,21,8.0,15.0,44,0.00,,,0.00,,2013-05-25 10:42:00,
2013-05-25 02:52:00,48.0,27.0,29.96,NNE,21,8.0,15.0,44,0.00,,,0.00,,2013-05-25 10:52:00,
2013-05-25 03:00:00,47.0,26.0,29.96,NNE,29,7.0,15.0,44,0.00,,,0.00,,2013-05-25 11:00:00,
2013-05-25 03:32:00,47.0,26.0,29.96,NNE,29,7.0,15.0,44,0.00,,,0.00,,2013-05-25 11:32:00,
2013-05-25 03:42:00,47.0,26.0,29.96,NNE,29,7.0,15.0,44,0.00,,,0.00,,2013-05-25 11:42:00,
2013-05-25 03:52:00,47.0,26.0,29.96,NNE,29,7.0,15.0,44,0.00,,,0.00,,2013-05-25 11:52:00,
2013-05-25 04:00:00,48.0,26.0,29.95,NNE,32,7.0,13.0,42,0.00,,,0.00,,2013-05-25 12:00:00,
2013-05-25 04:32:00,48.0,26.0,29.95,NNE,32,7.0,13.0,42,0.00,,,0.00,,2013-05-25 12:32:00,
2013-05-25 04:42:00,48.0,26.0,29.95,NNE,32,7.0,13.0,42,0.00,,,0.00,,2013-05-25 12:42:00,
2013-05-25 04:52:00,48.0,26.0,29.95,NNE,32,7.0,13.0,42,0.00,,,0.00,,2013-05-25 12:52:00,
2013-05-25 05:00:00,48.0,25.0,29.95,NE,38,6.0,12.0,41,0.00,,,0.00,,2013-05-25 13:00:00,
2013-05-25 05:32:00,48.0,25.0,29.95,NE,38,6.0,12.0,41,0.00,,,0.00,,2013-05-25 13:32:00,
2013-05-25 05:42:00,48.0,25.0,29.95,NE,38,6.0,12.0,41,0.00,,,0.00,,2013-05-25 13:42:00,
2013-05-25 05:52:00,48.0,25.0,29.95,NE,38,6.0,12.0,41,0.00,,,0.00,,2013-05-25 13:52:00,
2013-05-25 06:00:00,49.0,26.0,29.94,NE,48,5.0,11.0,41,0.00,,,0.00,,2013-05-25 14:00:00,
2013-05-25 06:32:00,49.0,26.0,29.94,NE,48,5.0,11.0,41,0.00,,,0.00,,2013-05-25 14:32:00,
2013-05-25 06:42:00,49.0,26.0,29.94,NE,48,5.0,11.0,41,0.00,,,0.00,,2013-05-25 14:42:00,
2013-05-25 06:52:00,49.0,26.0,29.94,NE,48,5.0,11.0,41,0.00,,,0.00,,2013-05-25 14:52:00,
2013-05-25 07:00:00,53.0,27.0,29.94,ENE,60,5.0,10.0,36,0.00,,,0.00,,2013-05-25 15:00:00,
2013-05-25 07:33:00,53.0,27.0,29.94,ENE,60,5.0,10.0,36,0.00,,,0.00,,2013-05-25 15:33:00,
2013-05-25 07:43:00,53.0,27.0,29.94,ENE,60,5.0,10.0,36,0.00,,,0.00,,2013-05-25 15:43:00,
2013-05-25 07:53:00,53.0,27.0,29.94,ENE,60,5.0,10.0,36,0.00,,,0.00,,2013-05-25 15:53:00,
2013-05-25 08:00:00,55.0,26.0,29.93,ENE,74,6.0,11.0,33,0.00,,,0.00,,2013-05-25 16:00:00,
2013-05-25 08:33:00,55.0,26.0,29.93,ENE,74,6.0,11.0,33,0.00,,,0.00,,2013-05-25 16:33:00,
2013-05-25 08:42:00,55.0,26.0,29.93,ENE,74,6.0,11.0,33,0.00,,,0.00,,2013-05-25 16:42:00,
2013-05-25 08:52:00,55.0,26.0,29.93,ENE,74,6.0,11.0,33,0.00,,,0.00,,2013-05-25 16:52:00,
2013-05-25 09:00:00,58.0,27.0,29.93,East,86,5.0,13.0,31,0.00,,,0.00,,2013-05-25 17:00:00,
2013-05-25 09:33:00,58.0,27.0,29.93,East,86,5.0,13.0,31,0.00,,,0.00,,2013-05-25 17:33:00,
2013-05-25 09:42:00,58.0,27.0,29.93,East,86,5.0,13.0,31,0.00,,,0.00,,2013-05-25 17:42:00,
2013-05-25 09:52:00,58.0,27.0,29.93,East,86,5.0,13.0,31,0.00,,,0.00,,2013-05-25 17:52:00,
2013-05-25 10:00:00,60.0,29.0,29.92,East,87,4.0,10.0,31,0.00,,,0.00,,2013-05-25 18:00:00,
2013-05-25 10:32:00,60.0,29.0,29.92,East,87,4.0,10.0,31,0.00,,,0.00,,2013-05-25 18:32:00,
2013-05-25 10:42:00,60.0,29.0,29.92,East,87,4.0,10.0,31,0.00,,,0.00,,2013-05-25 18:42:00,
2013-05-25 10:52:00,60.0,29.0,29.92,East,87,4.0,10.0,31,0.00,,,0.00,,2013-05-25 18:52:00,
2013-05-25 11:00:00,65.0,30.0,29.92,ESE,123,4.0,11.0,27,0.00,,,0.00,,2013-05-25 19:00:00,
2013-05-25 11:32:00,65.0,30.0,29.92,ESE,123,4.0,11.0,27,0.00,,,0.00,,2013-05-25 19:32:00,
2013-05-25 11:42:00,65.0,30.0,29.92,ESE,123,4.0,11.0,27,0.00,,,0.00,,2013-05-25 19:42:00,
2013-05-25 11:52:00,65.0,30.0,29.92,ESE,123,4.0,11.0,27,0.00,,,0.00,,2013-05-25 19:52:00,
2013-05-25 12:00:00,68.0,29.0,29.90,ESE,115,3.0,10.0,23,0.00,,,0.00,,2013-05-25 20:00:00,
2013-05-25 12:32:00,68.0,29.0,29.90,ESE,115,3.0,10.0,23,0.00,,,0.00,,2013-05-25 20:32:00,
2013-05-25 12:42:00,68.0,29.0,29.90,ESE,115,3.0,10.0,23,0.00,,,0.00,,2013-05-25 20:42:00,
2013-05-25 12:52:00,68.0,29.0,29.90,ESE,115,3.0,10.0,23,0.00,,,0.00,,2013-05-25 20:52:00,
2013-05-25 13:00:00,69.0,27.0,29.88,SE,124,3.0,12.0,21,0.00,,,0.00,,2013-05-25 21:00:00,
2013-05-25 13:33:00,69.0,27.0,29.88,SE,124,3.0,12.0,21,0.00,,,0.00,,2013-05-25 21:33:00,
2013-05-25 13:43:00,69.0,27.0,29.88,SE,124,3.0,12.0,21,0.00,,,0.00,,2013-05-25 21:43:00,
2013-05-25 13:53:00,69.0,27.0,29.88,SE,124,3.0,12.0,21,0.00,,,0.00,,2013-05-25 21:53:00,
2013-05-25 14:00:00,69.0,26.0,29.88,SSW,194,2.0,12.0,20,0.00,,,0.00,,2013-05-25 22:00:00,
2013-05-25 14:33:00,69.0,26.0,29.88,SSW,194,2.0,12.0,20,0.00,,,0.00,,2013-05-25 22:33:00,
2013-05-25 14:42:00,69.0,26.0,29.88,SSW,194,2.0,12.0,20,0.00,,,0.00,,2013-05-25 22:42:00,
2013-05-25 14:52:00,69.0,26.0,29.88,SSW,194,2.0,12.0,20,0.00,,,0.00,,2013-05-25 22:52:00,
2013-05-25 15:00:00,65.0,25.0,29.87,NNW,329,3.0,9.0,22,0.00,,,0.00,,2013-05-25 23:00:00,
2013-05-25 15:32:00,65.0,25.0,29.87,NNW,329,3.0,9.0,22,0.00,,,0.00,,2013-05-25 23:32:00,
2013-05-25 15:42:00,65.0,25.0,29.87,NNW,329,3.0,9.0,22,0.00,,,0.00,,2013-05-25 23:42:00,
2013-05-25 15:52:00,65.0,25.0,29.87,NNW,329,3.0,9.0,22,0.00,,,0.00,,2013-05-25 23:52:00,
2013-05-25 16:00:00,70.0,28.0,29.86,NNE,27,5.0,11.0,21,0.00,,,0.00,,2013-05-26 00:00:00,
2013-05-25 16:32:00,70.0,28.0,29.86,NNE,27,5.0,11.0,21,0.00,,,0.00,,2013-05-26 00:32:00,
2013-05-25 16:43:00,70.0,28.0,29.86,NNE,27,5.0,11.0,21,0.00,,,0.00,,2013-05-26 00:43:00,
2013-05-25 16:52:00,70.0,28.0,29.86,NNE,27,5.0,11.0,21,0.00,,,0.00,,2013-05-26 00:52:00,
2013-05-25 17:00:00,64.0,26.0,29.85,North,4,3.0,9.0,24,0.00,,,0.00,,2013-05-26 01:00:00,
2013-05-25 17:32:00,64.0,26.0,29.85,North,4,3.0,9.0,24,0.00,,,0.00,,2013-05-26 01:32:00,
2013-05-25 17:42:00,64.0,26.0,29.85,North,4,3.0,9.0,24,0.00,,,0.00,,2013-05-26 01:42:00,
2013-05-25 17:52:00,64.0,26.0,29.85,North,4,3.0,9.0,24,0.00,,,0.00,,2013-05-26 01:52:00,
2013-05-25 18:00:00,65.0,27.0,29.84,North,3,3.0,8.0,24,0.00,,,0.00,,2013-05-26 02:00:00,
2013-05-25 18:32:00,65.0,27.0,29.84,North,3,3.0,8.0,24,0.00,,,0.00,,2013-05-26 02:32:00,
2013-05-25 18:42:00,65.0,27.0,29.84,North,3,3.0,8.0,24,0.00,,,0.00,,2013-05-26 02:42:00,
2013-05-25 18:52:00,65.0,27.0,29.84,North,3,3.0,8.0,24,0.00,,,0.00,,2013-05-26 02:52:00,
2013-05-25 19:00:00,69.0,21.0,29.83,South,180,2.0,7.0,16,0.00,,,0.00,,2013-05-26 03:00:00,
2013-05-25 19:33:00,69.0,21.0,29.83,South,180,2.0,7.0,16,0.00,,,0.00,,2013-05-26 03:33:00,
2013-05-25 19:43:00,69.0,21.0,29.83,South,180,2.0,7.0,16,0.00,,,0.00,,2013-05-26 03:43:00,
2013-05-25 19:53:00,69.0,21.0,29.83,South,180,2.0,7.0,16,0.00,,,0.00,,2013-05-26 03:53:00,
2013-05-25 20:00:00,65.0,19.0,29.83,SSE,149,1.0,8.0,17,0.00,,,-99.99,,2013-05-26 04:00:00,
2013-05-25 20:33:00,65.0,19.0,29.83,SSE,149,1.0,8.0,17,0.00,,,-99.99,,2013-05-26 04:33:00,
2013-05-25 20:42:00,65.0,19.0,29.83,SSE,149,1.0,8.0,17,0.00,,,-99.99,,2013-05-26 04:42:00,
2013-05-25 20:52:00,65.0,19.0,29.83,SSE,149,1.0,8.0,17,0.00,,,-99.99,,2013-05-26 04:52:00,
2013-05-25 21:00:00,65.0,23.0,29.82,NNE,24,2.0,5.0,20,0.00,,,0.00,,2013-05-26 05:00:00,
2013-05-25 21:32:00,65.0,23.0,29.82,NNE,24,2.0,5.0,20,0.00,,,0.00,,2013-05-26 05:32:00,
2013-05-25 21:42:00,65.0,23.0,29.82,NNE,24,2.0,5.0,20,0.00,,,0.00,,2013-05-26 05:42:00,
2013-05-25 21:52:00,65.0,23.0,29.82,NNE,24,2.0,5.0,20,0.00,,,0.00,,2013-05-26 05:52:00,
2013-05-25 22:00:00,59.0,29.0,29.82,North,8,4.0,7.0,32,0.00,,,0.00,,2013-05-26 06:00:00,
2013-05-25 22:32:00,59.0,29.0,29.82,North,8,4.0,7.0,32,0.00,,,0.00,,2013-05-26 06:32:00,
2013-05-25 22:42:00,59.0,29.0,29.82,North,8,4.0,7.0,32,0.00,,,0.00,,2013-05-26 06:42:00,
2013-05-25 22:52:00,59.0,29.0,29.82,North,8,4.0,7.0,32,0.00,,,0.00,,2013-05-26 06:52:00,
2013-05-25 23:00:00,55.0,21.0,29.83,West,281,3.0,10.0,27,0.00,,,0.00,,2013-05-26 07:00:00,
2013-05-25 23:32:00,55.0,21.0,29.83,West,281,3.0,10.0,27,0.00,,,0.00,,2013-05-26 07:32:00,
2013-05-25 23:42:00,55.0,21.0,29.83,West,281,3.0,10.0,27,0.00,,,0.00,,2013-05-26 07:42:00,
2013-05-25 23:52:00,55.0,21.0,29.83,West,281,3.0,10.0,27,0.00,,,0.00,,2013-05-26 07:52:00,